AGGM

Munda Airport

Solomon Islands
TAF AGGM 211110Z 2112/2212 09006KT 9999 FEW016 SCT100 Q 1012 1010 1009 1011
Issued Valid From Valid To
Jun-21 @ 11:10 UTC
(7 hours ago)
Jun-21 @ 12:00 UTC
(6 hours ago)
Jun-22 @ 12:00 UTC
(in 18 hours)
Jun-21 @ 12:00 to Jun-22 @ 12:00
TAF AGGM 211110Z 2112/2212 09006KT 9999 FEW016 SCT100 Q 1012 1010 1009 1011
Wind Visibility Clouds
90° at 6 knots 10,000+ meters
  • Few at 1,600' AGL
  • Scattered at 10,000' AGL
TAF AGGM 211110Z 2112/2212 09006KT 9999 FEW016 SCT100 Q 1012 1010 1009 1011
Issued Jun-21 @ 11:10 UTC
(7 hours ago)
Valid From Jun-21 @ 12:00 UTC
(6 hours ago)
Valid To Jun-22 @ 12:00 UTC
(in 18 hours)
Jun-21 @ 12:00 - Jun-22 @ 12:00
Wind Visibility
90° at 6 knots 10,000+ meters
Clouds
  • Few at 1,600' AGL
  • Scattered at 10,000' AGL